Trenton, MO (64683)

4:17 PM CDT on September 01, 2015 (GMT -0500)
trenton mo | | Change Station
CLOSE
Current Station
Personal Weather Station
Location: Trenton, MO
Elevation: 850 ft
Nearby Weather Stations

Elev 850 ft 40.07 °N, 93.61 °W | Updated 15 seconds ago

Clear
Clear
91.8 °F
Feels Like 98 °F
N
12.7
Wind Variable Wind from SSW
Gusts 12.7 mph

Today
High -- | Low -- °F
--% Chance of Precip.
Yesterday
High -- | Low -- °F
Precip. -- in
6:41 AM 7:46 PM
Waning Gibbous, 86% visible
Pressure 29.96 in
Visibility 10.0 miles
Clouds Clear
Heat Index 98 °F
Dew Point 70 °F
Humidity 50%
Rainfall 0.00 in
Snow Depth Not available.
UV 6 out of 12
Pollen 10.80 out of 12
Air Quality Not available.
Flu Activity Not available.
METAR KLWD 012053Z AUTO 20010KT 10SM CLR 32/21 A2998 RMK AO2 SLP143 T03170211 58007
Pressure 29.96 in
Visibility 10.0 miles
Clouds Clear
Heat Index 98 °F
Dew Point 70 °F
Humidity 50%
Rainfall 0.00 in
Snow Depth Not available.
UV 6 out of 12
Pollen 10.80 out of 12
Air Quality Not available.
Flu Activity Not available.
METAR KLWD 012053Z AUTO 20010KT 10SM CLR 32/21 A2998 RMK AO2 SLP143 T03170211 58007

10-Day Weather Forecast

×

Almanac

Astronomy

Sep. 01, 2015 Rise Set
Actual Time
Civil Twilight
Nautical Twilight
Astronomical Twilight
Moon
Length of Visible Light
Length of Day
Tomorrow will be .
, % of the Moon is Illuminated

Today's Extremes

State Highs State Lows

Community

WunderPhotos

Upload Photos

1,851,617 photos uploaded!

WunderBlogs® & News

Nearby

Air Quality

  Air Quality AQ Index Pollutant
Not available.

Snow Depth

Station Depth Elevation

Earthquake Activity

City Distance Mag. Time & Date
Minimum magnitude displayed is 2.5.

Coastal Water Temperatures

Place Temperature

Stations

Nearby Weather Stations

Station Location Temp. Windchill Dew Point Humidity Wind Precip. Elev Updated Type